Airfield :
LOGIN :

Register | Disclaimer

   EN    FR    IT 

 










Legend :    VFR   Marginal VFR   IFR   Intensive IFR   Very Intensive IFR
Visi :
Ceiling :
>= 8 km
>= 3000ft
5 to 8 km
1000 to 3000 ft
1500m to 5 km
500 to 1000 ft
800 to 1500m
200 to 500 ft
< 800m
< 200 ft
Symbols :   Thunderstorms  Fog  Heavy snow  Heavy precipitations  Wind > 20 kt
SIGMETs :     Misc.  Thunderstorms  Icing  Turbulence  Mountain Waves  Volcanic Ashes






- Airport Elevation : 16 ft
- IATA code : SOJ


ENSR - Sørkjosen

CURRENT METAR :
  • 200050Z AUTO 16011KT 9999 NCD M03/M14 Q1018 RMK WIND RWY 32 16013KT WIND 1119FT 15023KT

EXPIRED METARs :
  • 200020Z AUTO 16012KT 9999 NCD M03/M14 Q1018 RMK WIND RWY 32 15013KT WIND 1119FT 15021KT
  • 192350Z 16007KT 130V200 CAVOK M03/M13 Q1018 RMK WIND RWY 32 16010KT WIND 1119FT 15020KT
  • 192320Z 16008KT CAVOK M03/M13 Q1018 RMK WIND RWY 32 16011KT WIND 1119FT 14016KT
  • 192250Z 15012G23KT CAVOK M03/M12 Q1018 RMK WIND RWY 32 14014KT WIND 1119FT 14020KT
  • 192220Z AUTO 16007KT 110V200 9999 NCD M03/M13 Q1018 RMK WIND RWY 32 15010KT WIND 1119FT 14018KT
  • 192150Z AUTO 16009KT 130V210 9999 NCD M02/M13 Q1018 RMK WIND RWY 32 16012KT WIND 1119FT 14020KT
  • 192120Z AUTO 14014KT 9999 NCD M02/M12 Q1017 RMK WIND RWY 32 14013KT WIND 1119FT 14018KT
  • 192050Z AUTO 14013KT 9999 NCD M02/M12 Q1017 RMK WIND RWY 32 14011KT WIND 1119FT 14018KT
  • 192020Z AUTO 14011KT 9999 NCD M02/M12 Q1017 RMK WIND RWY 32 14010KT WIND 1119FT 14020KT

Expired Forecast.



MET'MAP, your aeronautical weather chart ! - Copyright ORBIFLY December 2007 - Disclaimer

ORBIFLY MET'MAP TEAM :

Programming & Development : Alexandra Zaïnal
Original concept : Baudouin d'Aumeries
Technical & hardware support : Manuel Goepfert
Assistance : Marc-Olivier Méhu




SOURCES & CREDITS :

   NOAA